sensor_id;sensor_type;location;lat;lon;timestamp;P1;durP1;ratioP1;P2;durP2;ratioP2
17784;SDS011;9016;53.582;10.062;2023-02-22T00:01:00;22.07;;;17.53;;
17784;SDS011;9016;53.582;10.062;2023-02-22T00:03:33;21.67;;;17.20;;
17784;SDS011;9016;53.582;10.062;2023-02-22T00:06:02;21.33;;;16.83;;
17784;SDS011;9016;53.582;10.062;2023-02-22T00:08:33;19.87;;;16.07;;
17784;SDS011;9016;53.582;10.062;2023-02-22T00:11:04;22.23;;;16.80;;
17784;SDS011;9016;53.582;10.062;2023-02-22T00:13:34;23.93;;;17.67;;
17784;SDS011;9016;53.582;10.062;2023-02-22T00:16:02;22.87;;;16.80;;
17784;SDS011;9016;53.582;10.062;2023-02-22T00:18:31;24.07;;;15.40;;
17784;SDS011;9016;53.582;10.062;2023-02-22T00:20:59;22.30;;;14.27;;
17784;SDS011;9016;53.582;10.062;2023-02-22T00:23:28;22.97;;;13.87;;
17784;SDS011;9016;53.582;10.062;2023-02-22T00:25:59;22.37;;;13.00;;
17784;SDS011;9016;53.582;10.062;2023-02-22T00:28:27;21.73;;;12.47;;
17784;SDS011;9016;53.582;10.062;2023-02-22T00:30:56;20.00;;;12.73;;
17784;SDS011;9016;53.582;10.062;2023-02-22T00:33:25;23.93;;;12.73;;
17784;SDS011;9016;53.582;10.062;2023-02-22T00:35:53;23.77;;;12.23;;
17784;SDS011;9016;53.582;10.062;2023-02-22T00:38:21;25.77;;;12.27;;
17784;SDS011;9016;53.582;10.062;2023-02-22T00:40:49;25.73;;;12.33;;
17784;SDS011;9016;53.582;10.062;2023-02-22T00:43:18;26.47;;;12.87;;
17784;SDS011;9016;53.582;10.062;2023-02-22T00:45:46;25.87;;;12.17;;
17784;SDS011;9016;53.582;10.062;2023-02-22T00:48:15;24.40;;;11.57;;
17784;SDS011;9016;53.582;10.062;2023-02-22T00:50:43;24.60;;;12.13;;
17784;SDS011;9016;53.582;10.062;2023-02-22T00:53:14;20.30;;;10.93;;
17784;SDS011;9016;53.582;10.062;2023-02-22T00:55:42;25.63;;;13.00;;
17784;SDS011;9016;53.582;10.062;2023-02-22T00:58:10;25.57;;;12.40;;
17784;SDS011;9016;53.582;10.062;2023-02-22T01:00:40;31.50;;;13.97;;
17784;SDS011;9016;53.582;10.062;2023-02-22T01:03:09;34.13;;;15.40;;
17784;SDS011;9016;53.582;10.062;2023-02-22T01:05:40;33.13;;;14.23;;
17784;SDS011;9016;53.582;10.062;2023-02-22T01:08:10;30.67;;;13.50;;
17784;SDS011;9016;53.582;10.062;2023-02-22T01:10:39;33.87;;;14.37;;
17784;SDS011;9016;53.582;10.062;2023-02-22T01:13:07;32.87;;;15.37;;
17784;SDS011;9016;53.582;10.062;2023-02-22T01:15:38;31.23;;;13.50;;
17784;SDS011;9016;53.582;10.062;2023-02-22T01:18:10;33.33;;;15.27;;
17784;SDS011;9016;53.582;10.062;2023-02-22T01:20:42;32.17;;;15.43;;
17784;SDS011;9016;53.582;10.062;2023-02-22T01:23:13;36.37;;;16.30;;
17784;SDS011;9016;53.582;10.062;2023-02-22T01:25:42;32.13;;;14.90;;
17784;SDS011;9016;53.582;10.062;2023-02-22T01:28:10;31.30;;;14.60;;
17784;SDS011;9016;53.582;10.062;2023-02-22T01:30:40;31.70;;;14.17;;
17784;SDS011;9016;53.582;10.062;2023-02-22T01:33:08;33.10;;;16.00;;
17784;SDS011;9016;53.582;10.062;2023-02-22T01:35:38;36.90;;;16.87;;
17784;SDS011;9016;53.582;10.062;2023-02-22T01:38:06;34.93;;;16.27;;
17784;SDS011;9016;53.582;10.062;2023-02-22T01:40:35;34.63;;;16.07;;
17784;SDS011;9016;53.582;10.062;2023-02-22T01:43:05;32.87;;;15.77;;
17784;SDS011;9016;53.582;10.062;2023-02-22T01:45:49;36.20;;;16.83;;
17784;SDS011;9016;53.582;10.062;2023-02-22T01:48:25;35.60;;;17.67;;
17784;SDS011;9016;53.582;10.062;2023-02-22T01:50:59;38.80;;;18.57;;
17784;SDS011;9016;53.582;10.062;2023-02-22T01:53:36;37.83;;;18.73;;
17784;SDS011;9016;53.582;10.062;2023-02-22T01:56:08;34.67;;;18.40;;
17784;SDS011;9016;53.582;10.062;2023-02-22T02:02:28;45.23;;;19.60;;
17784;SDS011;9016;53.582;10.062;2023-02-22T02:04:56;39.87;;;19.00;;
17784;SDS011;9016;53.582;10.062;2023-02-22T02:14:06;51.27;;;20.73;;
17784;SDS011;9016;53.582;10.062;2023-02-22T02:16:36;38.27;;;19.20;;
17784;SDS011;9016;53.582;10.062;2023-02-22T02:19:09;39.20;;;19.03;;
17784;SDS011;9016;53.582;10.062;2023-02-22T02:21:55;47.80;;;19.50;;
17784;SDS011;9016;53.582;10.062;2023-02-22T02:24:50;43.47;;;20.23;;
17784;SDS011;9016;53.582;10.062;2023-02-22T02:27:48;45.33;;;19.03;;
17784;SDS011;9016;53.582;10.062;2023-02-22T02:30:47;43.70;;;18.67;;
17784;SDS011;9016;53.582;10.062;2023-02-22T02:33:34;39.67;;;19.70;;
17784;SDS011;9016;53.582;10.062;2023-02-22T02:36:11;41.13;;;20.00;;
17784;SDS011;9016;53.582;10.062;2023-02-22T02:38:46;46.33;;;19.97;;
17784;SDS011;9016;53.582;10.062;2023-02-22T02:41:23;37.67;;;19.23;;
17784;SDS011;9016;53.582;10.062;2023-02-22T02:43:54;35.70;;;18.23;;
17784;SDS011;9016;53.582;10.062;2023-02-22T02:46:28;39.70;;;20.10;;
17784;SDS011;9016;53.582;10.062;2023-02-22T02:49:04;39.03;;;19.97;;
17784;SDS011;9016;53.582;10.062;2023-02-22T02:51:36;39.93;;;18.93;;
17784;SDS011;9016;53.582;10.062;2023-02-22T02:54:06;36.90;;;19.17;;
17784;SDS011;9016;53.582;10.062;2023-02-22T02:56:35;32.10;;;17.77;;
17784;SDS011;9016;53.582;10.062;2023-02-22T02:59:18;30.83;;;16.57;;
17784;SDS011;9016;53.582;10.062;2023-02-22T03:01:54;28.50;;;16.10;;
17784;SDS011;9016;53.582;10.062;2023-02-22T03:04:36;30.53;;;16.37;;
17784;SDS011;9016;53.582;10.062;2023-02-22T03:07:20;27.20;;;16.03;;
17784;SDS011;9016;53.582;10.062;2023-02-22T03:10:01;24.23;;;15.20;;
17784;SDS011;9016;53.582;10.062;2023-02-22T03:12:44;28.77;;;16.50;;
17784;SDS011;9016;53.582;10.062;2023-02-22T03:15:21;30.03;;;16.27;;
17784;SDS011;9016;53.582;10.062;2023-02-22T03:18:01;23.50;;;14.97;;
17784;SDS011;9016;53.582;10.062;2023-02-22T03:20:37;29.83;;;15.30;;
17784;SDS011;9016;53.582;10.062;2023-02-22T03:23:10;26.03;;;14.97;;
17784;SDS011;9016;53.582;10.062;2023-02-22T03:25:50;26.73;;;14.77;;
17784;SDS011;9016;53.582;10.062;2023-02-22T03:28:23;25.90;;;14.90;;
17784;SDS011;9016;53.582;10.062;2023-02-22T03:30:53;22.60;;;13.33;;
17784;SDS011;9016;53.582;10.062;2023-02-22T03:33:28;25.23;;;14.20;;
17784;SDS011;9016;53.582;10.062;2023-02-22T03:36:04;25.67;;;13.93;;
17784;SDS011;9016;53.582;10.062;2023-02-22T03:38:36;23.67;;;13.73;;
17784;SDS011;9016;53.582;10.062;2023-02-22T03:41:06;20.80;;;12.53;;
17784;SDS011;9016;53.582;10.062;2023-02-22T03:43:39;22.87;;;13.23;;
17784;SDS011;9016;53.582;10.062;2023-02-22T03:46:11;19.40;;;12.40;;
17784;SDS011;9016;53.582;10.062;2023-02-22T03:48:41;24.03;;;12.90;;
17784;SDS011;9016;53.582;10.062;2023-02-22T03:51:17;18.23;;;12.53;;
17784;SDS011;9016;53.582;10.062;2023-02-22T03:53:46;22.47;;;12.17;;
17784;SDS011;9016;53.582;10.062;2023-02-22T03:56:16;18.47;;;11.97;;
17784;SDS011;9016;53.582;10.062;2023-02-22T03:58:49;17.93;;;11.43;;
17784;SDS011;9016;53.582;10.062;2023-02-22T04:01:17;18.47;;;11.50;;
17784;SDS011;9016;53.582;10.062;2023-02-22T04:03:49;17.57;;;11.57;;
17784;SDS011;9016;53.582;10.062;2023-02-22T04:06:18;19.30;;;13.53;;
17784;SDS011;9016;53.582;10.062;2023-02-22T04:08:46;16.30;;;12.23;;
17784;SDS011;9016;53.582;10.062;2023-02-22T04:11:14;20.80;;;14.17;;
17784;SDS011;9016;53.582;10.062;2023-02-22T04:13:42;20.07;;;14.93;;
17784;SDS011;9016;53.582;10.062;2023-02-22T04:16:10;24.87;;;16.83;;
17784;SDS011;9016;53.582;10.062;2023-02-22T04:18:38;21.90;;;15.27;;
17784;SDS011;9016;53.582;10.062;2023-02-22T04:21:06;17.53;;;12.20;;
17784;SDS011;9016;53.582;10.062;2023-02-22T04:23:35;19.00;;;13.33;;
17784;SDS011;9016;53.582;10.062;2023-02-22T04:26:04;20.87;;;13.40;;
17784;SDS011;9016;53.582;10.062;2023-02-22T04:28:32;19.43;;;12.87;;
17784;SDS011;9016;53.582;10.062;2023-02-22T04:31:00;17.57;;;12.17;;
17784;SDS011;9016;53.582;10.062;2023-02-22T04:33:28;21.10;;;12.10;;
17784;SDS011;9016;53.582;10.062;2023-02-22T04:35:56;22.57;;;13.23;;
17784;SDS011;9016;53.582;10.062;2023-02-22T04:38:25;18.30;;;12.80;;
17784;SDS011;9016;53.582;10.062;2023-02-22T04:40:54;19.60;;;13.50;;
17784;SDS011;9016;53.582;10.062;2023-02-22T04:43:22;22.17;;;14.37;;
17784;SDS011;9016;53.582;10.062;2023-02-22T04:45:50;20.60;;;14.00;;
17784;SDS011;9016;53.582;10.062;2023-02-22T04:48:18;22.00;;;15.00;;
17784;SDS011;9016;53.582;10.062;2023-02-22T04:50:47;21.10;;;14.10;;
17784;SDS011;9016;53.582;10.062;2023-02-22T04:53:16;21.27;;;14.83;;
17784;SDS011;9016;53.582;10.062;2023-02-22T04:55:44;21.37;;;14.67;;
17784;SDS011;9016;53.582;10.062;2023-02-22T04:58:13;21.00;;;14.57;;
17784;SDS011;9016;53.582;10.062;2023-02-22T05:00:41;22.00;;;15.30;;
17784;SDS011;9016;53.582;10.062;2023-02-22T05:03:09;23.13;;;14.87;;
17784;SDS011;9016;53.582;10.062;2023-02-22T05:05:37;23.37;;;15.37;;
17784;SDS011;9016;53.582;10.062;2023-02-22T05:08:05;22.23;;;15.53;;
17784;SDS011;9016;53.582;10.062;2023-02-22T05:10:33;23.83;;;16.13;;
17784;SDS011;9016;53.582;10.062;2023-02-22T05:13:01;25.93;;;16.80;;
17784;SDS011;9016;53.582;10.062;2023-02-22T05:15:30;29.47;;;17.33;;
17784;SDS011;9016;53.582;10.062;2023-02-22T05:17:59;27.00;;;17.73;;
17784;SDS011;9016;53.582;10.062;2023-02-22T05:20:28;25.73;;;17.47;;
17784;SDS011;9016;53.582;10.062;2023-02-22T05:22:57;28.40;;;17.37;;
17784;SDS011;9016;53.582;10.062;2023-02-22T05:25:26;28.20;;;18.17;;
17784;SDS011;9016;53.582;10.062;2023-02-22T05:27:56;28.37;;;17.77;;
17784;SDS011;9016;53.582;10.062;2023-02-22T05:30:27;28.00;;;17.60;;
17784;SDS011;9016;53.582;10.062;2023-02-22T05:32:57;26.23;;;18.03;;
17784;SDS011;9016;53.582;10.062;2023-02-22T05:35:25;29.93;;;19.20;;
17784;SDS011;9016;53.582;10.062;2023-02-22T05:37:55;26.77;;;17.63;;
17784;SDS011;9016;53.582;10.062;2023-02-22T05:40:25;27.93;;;17.43;;
17784;SDS011;9016;53.582;10.062;2023-02-22T05:42:53;30.33;;;19.83;;
17784;SDS011;9016;53.582;10.062;2023-02-22T05:45:23;28.77;;;19.27;;
17784;SDS011;9016;53.582;10.062;2023-02-22T05:47:52;32.17;;;19.57;;
17784;SDS011;9016;53.582;10.062;2023-02-22T05:50:22;32.83;;;20.30;;
17784;SDS011;9016;53.582;10.062;2023-02-22T05:52:51;26.43;;;17.97;;
17784;SDS011;9016;53.582;10.062;2023-02-22T05:55:19;34.87;;;20.03;;
17784;SDS011;9016;53.582;10.062;2023-02-22T05:57:49;33.77;;;20.60;;
17784;SDS011;9016;53.582;10.062;2023-02-22T06:00:18;32.70;;;19.87;;
17784;SDS011;9016;53.582;10.062;2023-02-22T06:02:52;32.90;;;19.17;;
17784;SDS011;9016;53.582;10.062;2023-02-22T06:05:22;33.40;;;20.20;;
17784;SDS011;9016;53.582;10.062;2023-02-22T06:07:50;34.97;;;20.37;;
17784;SDS011;9016;53.582;10.062;2023-02-22T06:10:19;32.43;;;19.63;;
17784;SDS011;9016;53.582;10.062;2023-02-22T06:12:47;35.10;;;20.27;;
17784;SDS011;9016;53.582;10.062;2023-02-22T06:15:16;32.93;;;19.87;;
17784;SDS011;9016;53.582;10.062;2023-02-22T06:17:45;34.33;;;20.30;;
17784;SDS011;9016;53.582;10.062;2023-02-22T06:20:15;33.07;;;20.67;;
17784;SDS011;9016;53.582;10.062;2023-02-22T06:22:46;34.97;;;21.17;;
17784;SDS011;9016;53.582;10.062;2023-02-22T06:25:15;39.23;;;22.03;;
17784;SDS011;9016;53.582;10.062;2023-02-22T06:27:44;38.33;;;21.33;;
17784;SDS011;9016;53.582;10.062;2023-02-22T06:30:13;39.23;;;21.43;;
17784;SDS011;9016;53.582;10.062;2023-02-22T06:32:42;37.17;;;21.70;;
17784;SDS011;9016;53.582;10.062;2023-02-22T06:35:10;41.40;;;23.13;;
17784;SDS011;9016;53.582;10.062;2023-02-22T06:37:39;41.73;;;21.93;;
17784;SDS011;9016;53.582;10.062;2023-02-22T06:40:09;44.90;;;22.83;;
17784;SDS011;9016;53.582;10.062;2023-02-22T06:42:38;51.30;;;23.97;;
17784;SDS011;9016;53.582;10.062;2023-02-22T06:45:07;40.80;;;21.23;;
17784;SDS011;9016;53.582;10.062;2023-02-22T06:47:38;48.47;;;23.40;;
17784;SDS011;9016;53.582;10.062;2023-02-22T06:50:07;45.17;;;23.00;;
17784;SDS011;9016;53.582;10.062;2023-02-22T06:52:45;45.50;;;23.23;;
17784;SDS011;9016;53.582;10.062;2023-02-22T06:55:19;48.40;;;22.97;;
17784;SDS011;9016;53.582;10.062;2023-02-22T06:57:47;51.23;;;23.50;;
17784;SDS011;9016;53.582;10.062;2023-02-22T07:00:16;41.77;;;22.40;;
17784;SDS011;9016;53.582;10.062;2023-02-22T07:02:45;50.27;;;23.23;;
17784;SDS011;9016;53.582;10.062;2023-02-22T07:05:15;47.30;;;22.33;;
17784;SDS011;9016;53.582;10.062;2023-02-22T07:07:44;48.27;;;21.40;;
17784;SDS011;9016;53.582;10.062;2023-02-22T07:10:15;40.83;;;21.63;;
17784;SDS011;9016;53.582;10.062;2023-02-22T07:12:46;42.80;;;22.10;;
17784;SDS011;9016;53.582;10.062;2023-02-22T07:15:14;39.20;;;21.23;;
17784;SDS011;9016;53.582;10.062;2023-02-22T07:17:44;41.13;;;22.43;;
17784;SDS011;9016;53.582;10.062;2023-02-22T07:20:12;39.23;;;21.30;;
17784;SDS011;9016;53.582;10.062;2023-02-22T07:22:40;38.50;;;22.57;;
17784;SDS011;9016;53.582;10.062;2023-02-22T07:25:08;38.37;;;21.20;;
17784;SDS011;9016;53.582;10.062;2023-02-22T07:27:36;37.73;;;22.23;;
17784;SDS011;9016;53.582;10.062;2023-02-22T07:30:06;39.13;;;21.33;;
17784;SDS011;9016;53.582;10.062;2023-02-22T07:32:42;37.90;;;22.30;;
17784;SDS011;9016;53.582;10.062;2023-02-22T07:35:13;39.87;;;22.20;;
17784;SDS011;9016;53.582;10.062;2023-02-22T07:37:42;42.80;;;21.53;;
17784;SDS011;9016;53.582;10.062;2023-02-22T07:40:10;36.57;;;21.17;;
17784;SDS011;9016;53.582;10.062;2023-02-22T07:42:52;36.50;;;21.87;;
17784;SDS011;9016;53.582;10.062;2023-02-22T07:45:22;34.63;;;20.53;;
17784;SDS011;9016;53.582;10.062;2023-02-22T07:47:51;35.03;;;20.20;;
17784;SDS011;9016;53.582;10.062;2023-02-22T07:50:20;35.73;;;21.00;;
17784;SDS011;9016;53.582;10.062;2023-02-22T07:52:49;34.40;;;20.13;;
17784;SDS011;9016;53.582;10.062;2023-02-22T07:55:19;39.00;;;20.90;;
17784;SDS011;9016;53.582;10.062;2023-02-22T07:57:49;36.10;;;20.60;;
17784;SDS011;9016;53.582;10.062;2023-02-22T08:00:22;31.57;;;19.37;;
17784;SDS011;9016;53.582;10.062;2023-02-22T08:02:51;34.77;;;20.33;;
17784;SDS011;9016;53.582;10.062;2023-02-22T08:05:20;35.23;;;20.37;;
17784;SDS011;9016;53.582;10.062;2023-02-22T08:07:49;34.40;;;20.83;;
17784;SDS011;9016;53.582;10.062;2023-02-22T08:10:18;37.63;;;21.33;;
17784;SDS011;9016;53.582;10.062;2023-02-22T08:12:47;31.97;;;19.90;;
17784;SDS011;9016;53.582;10.062;2023-02-22T08:15:17;31.93;;;19.60;;
17784;SDS011;9016;53.582;10.062;2023-02-22T08:17:47;33.10;;;19.53;;
17784;SDS011;9016;53.582;10.062;2023-02-22T08:20:15;31.40;;;18.83;;
17784;SDS011;9016;53.582;10.062;2023-02-22T08:22:44;29.77;;;19.30;;
17784;SDS011;9016;53.582;10.062;2023-02-22T08:25:14;32.57;;;18.97;;
17784;SDS011;9016;53.582;10.062;2023-02-22T08:27:43;34.03;;;19.83;;
17784;SDS011;9016;53.582;10.062;2023-02-22T08:30:12;28.60;;;18.13;;
17784;SDS011;9016;53.582;10.062;2023-02-22T08:32:43;26.80;;;18.77;;
17784;SDS011;9016;53.582;10.062;2023-02-22T08:35:13;28.53;;;19.43;;
17784;SDS011;9016;53.582;10.062;2023-02-22T08:37:43;29.23;;;19.93;;
17784;SDS011;9016;53.582;10.062;2023-02-22T08:40:14;27.20;;;18.93;;
17784;SDS011;9016;53.582;10.062;2023-02-22T08:42:46;25.17;;;17.30;;
17784;SDS011;9016;53.582;10.062;2023-02-22T08:45:14;27.83;;;19.60;;
17784;SDS011;9016;53.582;10.062;2023-02-22T08:47:43;26.47;;;18.50;;
17784;SDS011;9016;53.582;10.062;2023-02-22T08:50:15;23.50;;;17.87;;
17784;SDS011;9016;53.582;10.062;2023-02-22T08:52:45;22.07;;;16.97;;
17784;SDS011;9016;53.582;10.062;2023-02-22T08:55:13;25.37;;;18.70;;
17784;SDS011;9016;53.582;10.062;2023-02-22T08:57:41;24.00;;;18.27;;
17784;SDS011;9016;53.582;10.062;2023-02-22T09:00:09;24.13;;;18.33;;
17784;SDS011;9016;53.582;10.062;2023-02-22T09:02:38;28.03;;;19.63;;
17784;SDS011;9016;53.582;10.062;2023-02-22T09:05:07;28.00;;;20.73;;
17784;SDS011;9016;53.582;10.062;2023-02-22T09:07:36;35.43;;;27.37;;
17784;SDS011;9016;53.582;10.062;2023-02-22T09:10:07;28.37;;;20.57;;
17784;SDS011;9016;53.582;10.062;2023-02-22T09:12:36;41.57;;;32.43;;
17784;SDS011;9016;53.582;10.062;2023-02-22T09:15:04;38.73;;;28.50;;
17784;SDS011;9016;53.582;10.062;2023-02-22T09:17:32;38.60;;;30.10;;
17784;SDS011;9016;53.582;10.062;2023-02-22T09:20:03;34.33;;;26.23;;
17784;SDS011;9016;53.582;10.062;2023-02-22T09:22:33;32.67;;;23.10;;
17784;SDS011;9016;53.582;10.062;2023-02-22T09:25:02;27.43;;;20.93;;
17784;SDS011;9016;53.582;10.062;2023-02-22T09:27:42;33.10;;;24.60;;
17784;SDS011;9016;53.582;10.062;2023-02-22T09:30:15;30.00;;;22.27;;
17784;SDS011;9016;53.582;10.062;2023-02-22T09:32:44;27.27;;;20.43;;
17784;SDS011;9016;53.582;10.062;2023-02-22T09:35:12;40.43;;;31.30;;
17784;SDS011;9016;53.582;10.062;2023-02-22T09:37:40;38.80;;;30.67;;
17784;SDS011;9016;53.582;10.062;2023-02-22T09:40:15;30.50;;;24.33;;
17784;SDS011;9016;53.582;10.062;2023-02-22T09:42:54;33.10;;;22.90;;
17784;SDS011;9016;53.582;10.062;2023-02-22T09:45:30;33.60;;;25.63;;
17784;SDS011;9016;53.582;10.062;2023-02-22T09:48:02;32.63;;;22.50;;
17784;SDS011;9016;53.582;10.062;2023-02-22T09:50:47;36.13;;;26.77;;
17784;SDS011;9016;53.582;10.062;2023-02-22T09:53:21;31.53;;;21.00;;
17784;SDS011;9016;53.582;10.062;2023-02-22T09:55:57;34.80;;;24.53;;
17784;SDS011;9016;53.582;10.062;2023-02-22T09:58:31;33.10;;;25.47;;
17784;SDS011;9016;53.582;10.062;2023-02-22T10:01:07;27.40;;;19.90;;
17784;SDS011;9016;53.582;10.062;2023-02-22T10:03:57;28.40;;;20.00;;
17784;SDS011;9016;53.582;10.062;2023-02-22T10:06:30;29.40;;;20.13;;
17784;SDS011;9016;53.582;10.062;2023-02-22T10:09:01;27.10;;;19.37;;
17784;SDS011;9016;53.582;10.062;2023-02-22T10:11:42;31.80;;;23.53;;
17784;SDS011;9016;53.582;10.062;2023-02-22T10:14:24;31.20;;;23.93;;
17784;SDS011;9016;53.582;10.062;2023-02-22T10:17:04;36.50;;;25.30;;
17784;SDS011;9016;53.582;10.062;2023-02-22T10:19:40;27.47;;;19.63;;
17784;SDS011;9016;53.582;10.062;2023-02-22T10:22:24;27.77;;;20.97;;
17784;SDS011;9016;53.582;10.062;2023-02-22T10:25:04;29.67;;;20.63;;
17784;SDS011;9016;53.582;10.062;2023-02-22T10:27:40;34.40;;;28.33;;
17784;SDS011;9016;53.582;10.062;2023-02-22T10:30:14;49.87;;;39.70;;
17784;SDS011;9016;53.582;10.062;2023-02-22T10:32:51;27.93;;;20.60;;
17784;SDS011;9016;53.582;10.062;2023-02-22T10:35:24;45.47;;;36.80;;
17784;SDS011;9016;53.582;10.062;2023-02-22T10:37:56;40.83;;;32.53;;
17784;SDS011;9016;53.582;10.062;2023-02-22T10:40:27;28.80;;;21.83;;
17784;SDS011;9016;53.582;10.062;2023-02-22T10:43:04;27.53;;;20.90;;
17784;SDS011;9016;53.582;10.062;2023-02-22T10:45:33;24.83;;;20.00;;
17784;SDS011;9016;53.582;10.062;2023-02-22T10:48:03;24.77;;;18.57;;
17784;SDS011;9016;53.582;10.062;2023-02-22T10:50:38;26.57;;;19.17;;
17784;SDS011;9016;53.582;10.062;2023-02-22T10:53:07;26.67;;;20.20;;
17784;SDS011;9016;53.582;10.062;2023-02-22T10:55:36;21.70;;;17.87;;
17784;SDS011;9016;53.582;10.062;2023-02-22T10:58:40;25.03;;;20.10;;
17784;SDS011;9016;53.582;10.062;2023-02-22T11:01:19;28.70;;;21.30;;
17784;SDS011;9016;53.582;10.062;2023-02-22T11:04:00;24.37;;;18.63;;
17784;SDS011;9016;53.582;10.062;2023-02-22T11:06:32;26.43;;;19.87;;
17784;SDS011;9016;53.582;10.062;2023-02-22T11:09:05;25.50;;;19.80;;
17784;SDS011;9016;53.582;10.062;2023-02-22T11:11:39;23.30;;;18.87;;
17784;SDS011;9016;53.582;10.062;2023-02-22T11:14:09;25.60;;;21.00;;
17784;SDS011;9016;53.582;10.062;2023-02-22T11:16:45;27.33;;;21.57;;
17784;SDS011;9016;53.582;10.062;2023-02-22T11:19:18;26.70;;;20.63;;
17784;SDS011;9016;53.582;10.062;2023-02-22T11:21:50;29.23;;;24.03;;
17784;SDS011;9016;53.582;10.062;2023-02-22T11:24:21;30.93;;;21.20;;
17784;SDS011;9016;53.582;10.062;2023-02-22T11:27:00;40.40;;;30.10;;
17784;SDS011;9016;53.582;10.062;2023-02-22T11:29:33;27.47;;;20.43;;
17784;SDS011;9016;53.582;10.062;2023-02-22T11:32:10;24.40;;;19.57;;
17784;SDS011;9016;53.582;10.062;2023-02-22T11:34:46;26.93;;;20.43;;
17784;SDS011;9016;53.582;10.062;2023-02-22T11:37:33;25.80;;;19.87;;
17784;SDS011;9016;53.582;10.062;2023-02-22T11:40:05;23.43;;;20.07;;
17784;SDS011;9016;53.582;10.062;2023-02-22T11:42:40;23.87;;;18.73;;
17784;SDS011;9016;53.582;10.062;2023-02-22T11:45:09;23.50;;;18.43;;
17784;SDS011;9016;53.582;10.062;2023-02-22T11:47:46;23.37;;;18.80;;
17784;SDS011;9016;53.582;10.062;2023-02-22T11:50:21;23.63;;;19.37;;
17784;SDS011;9016;53.582;10.062;2023-02-22T11:53:04;23.37;;;17.73;;
17784;SDS011;9016;53.582;10.062;2023-02-22T11:55:43;25.00;;;18.83;;
17784;SDS011;9016;53.582;10.062;2023-02-22T11:58:23;21.80;;;16.90;;
17784;SDS011;9016;53.582;10.062;2023-02-22T12:01:01;21.37;;;16.47;;
17784;SDS011;9016;53.582;10.062;2023-02-22T12:03:54;22.80;;;18.07;;
17784;SDS011;9016;53.582;10.062;2023-02-22T12:06:43;22.87;;;17.53;;
17784;SDS011;9016;53.582;10.062;2023-02-22T12:09:19;27.17;;;19.53;;
17784;SDS011;9016;53.582;10.062;2023-02-22T12:11:54;36.33;;;22.03;;
17784;SDS011;9016;53.582;10.062;2023-02-22T12:14:36;27.27;;;19.80;;
17784;SDS011;9016;53.582;10.062;2023-02-22T12:17:17;26.50;;;19.43;;
17784;SDS011;9016;53.582;10.062;2023-02-22T12:19:53;23.30;;;18.77;;
17784;SDS011;9016;53.582;10.062;2023-02-22T12:22:28;26.00;;;19.47;;
17784;SDS011;9016;53.582;10.062;2023-02-22T12:25:02;24.67;;;18.70;;
17784;SDS011;9016;53.582;10.062;2023-02-22T12:27:37;24.97;;;19.70;;
17784;SDS011;9016;53.582;10.062;2023-02-22T12:30:12;21.43;;;17.17;;
17784;SDS011;9016;53.582;10.062;2023-02-22T12:32:45;25.77;;;20.37;;
17784;SDS011;9016;53.582;10.062;2023-02-22T12:35:18;23.67;;;19.30;;
17784;SDS011;9016;53.582;10.062;2023-02-22T12:37:55;21.03;;;17.33;;
17784;SDS011;9016;53.582;10.062;2023-02-22T12:40:32;21.00;;;16.83;;
17784;SDS011;9016;53.582;10.062;2023-02-22T12:43:07;23.83;;;18.87;;
17784;SDS011;9016;53.582;10.062;2023-02-22T12:45:45;21.10;;;17.43;;
17784;SDS011;9016;53.582;10.062;2023-02-22T12:48:22;24.40;;;20.03;;
17784;SDS011;9016;53.582;10.062;2023-02-22T12:50:58;24.17;;;19.70;;
17784;SDS011;9016;53.582;10.062;2023-02-22T12:53:30;25.70;;;19.57;;
17784;SDS011;9016;53.582;10.062;2023-02-22T12:56:09;22.17;;;17.80;;
17784;SDS011;9016;53.582;10.062;2023-02-22T12:58:48;20.83;;;17.13;;
17784;SDS011;9016;53.582;10.062;2023-02-22T13:01:23;26.13;;;21.33;;
17784;SDS011;9016;53.582;10.062;2023-02-22T13:03:55;24.47;;;20.30;;
17784;SDS011;9016;53.582;10.062;2023-02-22T13:06:35;27.43;;;23.37;;
17784;SDS011;9016;53.582;10.062;2023-02-22T13:09:16;19.93;;;16.40;;
17784;SDS011;9016;53.582;10.062;2023-02-22T13:11:58;21.07;;;17.93;;
17784;SDS011;9016;53.582;10.062;2023-02-22T13:14:39;23.57;;;17.57;;
17784;SDS011;9016;53.582;10.062;2023-02-22T13:17:20;20.97;;;15.60;;
17784;SDS011;9016;53.582;10.062;2023-02-22T13:19:57;19.73;;;16.53;;
17784;SDS011;9016;53.582;10.062;2023-02-22T13:22:33;21.43;;;16.60;;
17784;SDS011;9016;53.582;10.062;2023-02-22T13:25:09;20.50;;;16.27;;
17784;SDS011;9016;53.582;10.062;2023-02-22T13:27:45;22.10;;;18.33;;
17784;SDS011;9016;53.582;10.062;2023-02-22T13:30:19;26.20;;;21.53;;
17784;SDS011;9016;53.582;10.062;2023-02-22T13:32:55;20.70;;;16.63;;
17784;SDS011;9016;53.582;10.062;2023-02-22T13:35:38;18.93;;;16.10;;
17784;SDS011;9016;53.582;10.062;2023-02-22T13:38:37;18.97;;;15.53;;
17784;SDS011;9016;53.582;10.062;2023-02-22T13:41:28;20.30;;;16.90;;
17784;SDS011;9016;53.582;10.062;2023-02-22T13:44:11;19.97;;;16.93;;
17784;SDS011;9016;53.582;10.062;2023-02-22T13:49:49;18.60;;;15.90;;
17784;SDS011;9016;53.582;10.062;2023-02-22T13:52:31;19.43;;;14.50;;
17784;SDS011;9016;53.582;10.062;2023-02-22T13:55:05;20.20;;;16.40;;
17784;SDS011;9016;53.582;10.062;2023-02-22T13:57:42;21.13;;;16.53;;
17784;SDS011;9016;53.582;10.062;2023-02-22T14:00:17;17.10;;;14.00;;
17784;SDS011;9016;53.582;10.062;2023-02-22T14:03:01;22.37;;;16.40;;
17784;SDS011;9016;53.582;10.062;2023-02-22T14:05:35;21.17;;;17.50;;
17784;SDS011;9016;53.582;10.062;2023-02-22T14:14:23;15.73;;;12.77;;
17784;SDS011;9016;53.582;10.062;2023-02-22T14:19:59;16.43;;;11.90;;
17784;SDS011;9016;53.582;10.062;2023-02-22T14:22:41;16.40;;;12.63;;
17784;SDS011;9016;53.582;10.062;2023-02-22T14:25:36;17.37;;;12.47;;
17784;SDS011;9016;53.582;10.062;2023-02-22T14:28:06;17.53;;;13.27;;
17784;SDS011;9016;53.582;10.062;2023-02-22T14:30:36;17.17;;;13.17;;
17784;SDS011;9016;53.582;10.062;2023-02-22T14:36:10;22.00;;;14.20;;
17784;SDS011;9016;53.582;10.062;2023-02-22T14:38:40;19.60;;;14.40;;
17784;SDS011;9016;53.582;10.062;2023-02-22T14:41:10;19.77;;;14.20;;
17784;SDS011;9016;53.582;10.062;2023-02-22T14:43:40;18.97;;;15.17;;
17784;SDS011;9016;53.582;10.062;2023-02-22T14:46:09;17.90;;;14.20;;
17784;SDS011;9016;53.582;10.062;2023-02-22T14:48:44;22.10;;;15.33;;
17784;SDS011;9016;53.582;10.062;2023-02-22T14:51:16;18.90;;;15.10;;
17784;SDS011;9016;53.582;10.062;2023-02-22T14:53:55;18.93;;;14.57;;
17784;SDS011;9016;53.582;10.062;2023-02-22T14:56:30;22.97;;;15.40;;
17784;SDS011;9016;53.582;10.062;2023-02-22T14:59:12;19.57;;;14.60;;
17784;SDS011;9016;53.582;10.062;2023-02-22T15:01:44;19.67;;;15.57;;
17784;SDS011;9016;53.582;10.062;2023-02-22T15:04:33;21.73;;;16.43;;
17784;SDS011;9016;53.582;10.062;2023-02-22T15:07:07;24.43;;;16.20;;
17784;SDS011;9016;53.582;10.062;2023-02-22T15:09:43;21.60;;;16.40;;
17784;SDS011;9016;53.582;10.062;2023-02-22T15:12:15;21.77;;;16.00;;
17784;SDS011;9016;53.582;10.062;2023-02-22T15:14:58;22.00;;;15.33;;
17784;SDS011;9016;53.582;10.062;2023-02-22T15:17:39;19.23;;;15.93;;
17784;SDS011;9016;53.582;10.062;2023-02-22T15:20:13;24.10;;;15.83;;